createdAt,value
2023-04-25T00:04:12.678Z,101018.53
2023-04-25T00:09:16.587Z,101023.25
2023-04-25T00:14:20.336Z,101026.31
2023-04-25T00:19:25.756Z,101027.69
2023-04-25T00:24:29.493Z,101019.59
2023-04-25T00:29:33.196Z,101032.84
2023-04-25T00:34:38.294Z,101023.69
2023-04-25T00:39:42.187Z,101019.19
2023-04-25T00:44:47.164Z,101023.72
2023-04-25T00:49:52.304Z,101021.34
2023-04-25T00:54:56.562Z,101031.34
2023-04-25T01:00:00.976Z,101027.19
2023-04-25T01:05:07.213Z,101024.00
2023-04-25T01:10:12.446Z,101023.31
2023-04-25T01:15:16.358Z,101032.09
2023-04-25T01:20:24.369Z,101033.50
2023-04-25T01:25:30.053Z,101037.75
2023-04-25T01:30:34.494Z,101031.91
2023-04-25T01:35:38.268Z,101037.94
2023-04-25T01:40:43.462Z,101039.72
2023-04-25T01:45:47.251Z,101039.19
2023-04-25T01:50:51.281Z,101046.03
2023-04-25T01:55:56.466Z,101049.31
2023-04-25T02:01:01.373Z,101042.72
2023-04-25T02:06:06.406Z,101058.88
2023-04-25T02:11:12.662Z,101066.12
2023-04-25T02:16:16.799Z,101064.75
2023-04-25T02:21:20.615Z,101063.53
2023-04-25T02:26:25.873Z,101062.31
2023-04-25T02:31:29.624Z,101076.50
2023-04-25T02:36:36.601Z,101074.34
2023-04-25T02:41:41.647Z,101064.37
2023-04-25T02:46:45.401Z,101078.72
2023-04-25T02:51:49.095Z,101084.87
2023-04-25T02:56:54.300Z,101081.88
2023-04-25T03:01:58.102Z,101080.41
2023-04-25T03:07:02.081Z,101074.56
2023-04-25T03:12:08.504Z,101070.38
2023-04-25T03:17:12.564Z,101066.16
2023-04-25T03:22:16.342Z,101074.75
2023-04-25T03:27:21.420Z,101082.75
2023-04-25T03:32:25.263Z,101079.50
2023-04-25T03:37:29.152Z,101070.69
2023-04-25T03:42:34.361Z,101076.91
2023-04-25T03:47:39.059Z,101077.81
2023-04-25T03:52:42.972Z,101087.03
2023-04-25T03:57:48.367Z,101092.81
2023-04-25T04:02:53.740Z,101089.66
2023-04-25T04:07:57.647Z,101109.06
2023-04-25T04:13:03.131Z,101107.47
2023-04-25T04:18:07.287Z,101117.66
2023-04-25T04:23:11.671Z,101108.25
2023-04-25T04:28:17.068Z,101110.81
2023-04-25T04:33:22.266Z,101106.59
2023-04-25T04:38:27.348Z,101111.63
2023-04-25T04:43:34.347Z,101108.88
2023-04-25T04:48:41.148Z,101116.59
2023-04-25T04:53:45.998Z,101122.09
2023-04-25T04:58:51.559Z,101133.66
2023-04-25T05:04:01.177Z,101136.81
2023-04-25T05:09:07.076Z,101141.38
2023-04-25T05:14:12.840Z,101154.41
2023-04-25T05:19:17.603Z,101158.97
2023-04-25T05:24:21.405Z,101156.69
2023-04-25T05:29:28.887Z,101174.19
2023-04-25T05:34:33.246Z,101184.94
2023-04-25T05:39:37.795Z,101188.72
2023-04-25T05:44:43.253Z,101190.78
2023-04-25T05:49:47.849Z,101204.72
2023-04-25T05:54:52.338Z,101203.13
2023-04-25T05:59:58.281Z,101208.84
2023-04-25T06:05:05.160Z,101208.75
2023-04-25T06:10:10.647Z,101215.56
2023-04-25T06:15:27.997Z,101210.78
2023-04-25T06:20:37.871Z,101222.16
2023-04-25T06:25:41.680Z,101233.69
2023-04-25T06:30:47.440Z,101230.34
2023-04-25T06:35:51.448Z,101238.72
2023-04-25T06:40:55.708Z,101236.87
2023-04-25T06:46:01.074Z,101239.47
2023-04-25T06:51:06.560Z,101246.75
2023-04-25T06:56:11.638Z,101243.75
2023-04-25T07:01:18.408Z,101249.00
2023-04-25T07:06:22.362Z,101259.75
2023-04-25T07:11:26.411Z,101255.38
2023-04-25T07:16:31.730Z,101269.50
2023-04-25T07:21:37.423Z,101280.28
2023-04-25T07:26:42.204Z,101291.59
2023-04-25T07:31:49.509Z,101292.47
2023-04-25T07:36:53.594Z,101314.78
2023-04-25T07:41:59.393Z,101314.91
2023-04-25T07:47:08.086Z,101320.44
2023-04-25T07:52:12.079Z,101323.12
2023-04-25T07:57:19.549Z,101323.94
2023-04-25T08:02:27.253Z,101333.19
2023-04-25T08:07:31.089Z,101339.72
2023-04-25T08:12:38.087Z,101342.13
2023-04-25T08:17:46.581Z,101344.31
2023-04-25T08:22:50.655Z,101356.25
2023-04-25T08:27:57.570Z,101356.78
2023-04-25T08:33:03.807Z,101360.03
2023-04-25T08:38:08.993Z,101371.66
2023-04-25T08:43:16.156Z,101369.69
2023-04-25T08:48:23.459Z,101387.34
2023-04-25T08:53:28.855Z,101387.84
2023-04-25T08:58:35.378Z,101400.06
2023-04-25T09:03:41.143Z,101399.91
2023-04-25T09:08:45.082Z,101400.97
2023-04-25T09:13:49.384Z,101408.81
2023-04-25T09:18:56.037Z,101411.03
2023-04-25T09:24:00.613Z,101421.62
2023-04-25T09:29:08.884Z,101437.97
2023-04-25T09:34:16.684Z,101442.69
2023-04-25T09:39:22.489Z,101434.38
2023-04-25T09:44:28.082Z,101430.84
2023-04-25T09:49:34.034Z,101442.66
2023-04-25T09:54:38.606Z,101430.53
2023-04-25T09:59:46.831Z,101432.06
2023-04-25T10:04:55.757Z,101441.88
2023-04-25T10:10:03.332Z,101442.00
2023-04-25T10:15:09.799Z,101458.28
2023-04-25T10:20:15.438Z,101456.16
2023-04-25T10:25:19.538Z,101465.13
2023-04-25T10:30:23.248Z,101481.81
2023-04-25T10:35:30.231Z,101480.47
2023-04-25T10:40:34.369Z,101484.37
2023-04-25T10:45:53.999Z,101486.59
2023-04-25T10:51:10.843Z,101484.94
2023-04-25T10:56:19.966Z,101480.31
2023-04-25T11:01:27.063Z,101477.75
2023-04-25T11:06:48.773Z,101484.41
2023-04-25T11:11:56.923Z,101496.75
2023-04-25T11:17:01.967Z,101495.34
2023-04-25T11:22:08.003Z,101515.59
2023-04-25T11:27:11.786Z,101511.53
2023-04-25T11:32:16.570Z,101502.38
2023-04-25T11:37:22.095Z,101511.44
2023-04-25T11:42:25.906Z,101506.75
2023-04-25T11:47:32.287Z,101510.41
2023-04-25T11:52:41.598Z,101492.94
2023-04-25T11:57:47.904Z,101497.84
2023-04-25T12:02:54.840Z,101495.72
2023-04-25T12:08:00.123Z,101507.63
2023-04-25T12:13:20.515Z,101514.72
2023-04-25T12:18:28.508Z,101539.81
2023-04-25T12:23:33.644Z,101532.00
2023-04-25T12:28:37.388Z,101528.75
2023-04-25T12:33:42.289Z,101551.47
2023-04-25T12:38:47.382Z,101555.25
2023-04-25T12:43:51.275Z,101544.63
2023-04-25T12:48:58.740Z,101531.06
2023-04-25T12:54:09.350Z,101535.69
2023-04-25T12:59:13.225Z,101539.91
2023-04-25T13:04:17.525Z,101537.12
2023-04-25T13:09:22.825Z,101555.16
2023-04-25T13:14:26.539Z,101555.97
2023-04-25T13:19:30.280Z,101555.94
2023-04-25T13:24:35.593Z,101553.31
2023-04-25T13:29:41.303Z,101552.19
2023-04-25T13:34:45.012Z,101554.16
2023-04-25T13:39:50.110Z,101549.06
2023-04-25T13:44:53.783Z,101545.31
2023-04-25T13:49:57.496Z,101528.75
2023-04-25T13:55:04.433Z,101534.50
2023-04-25T14:00:10.951Z,101539.38
2023-04-25T14:05:14.797Z,101554.59
2023-04-25T14:10:20.062Z,101551.91
2023-04-25T14:15:24.199Z,101555.03
2023-04-25T14:20:28.160Z,101557.62
2023-04-25T14:25:33.379Z,101561.88
2023-04-25T14:30:37.113Z,101560.28
2023-04-25T14:35:40.997Z,101553.19
2023-04-25T14:40:46.060Z,101554.25
2023-04-25T14:45:49.969Z,101553.78
2023-04-25T14:50:53.671Z,101558.38
2023-04-25T14:55:58.764Z,101579.41
2023-04-25T15:01:02.835Z,101584.28
2023-04-25T15:06:07.728Z,101592.31
2023-04-25T15:11:13.060Z,101587.91
2023-04-25T15:16:16.902Z,101584.06
2023-04-25T15:21:20.850Z,101590.84
2023-04-25T15:26:25.985Z,101587.94
2023-04-25T15:31:29.947Z,101585.69
2023-04-25T15:36:34.086Z,101591.31
2023-04-25T15:41:39.353Z,101606.91
2023-04-25T15:46:44.391Z,101607.75
2023-04-25T15:51:48.289Z,101616.59
2023-04-25T15:56:53.726Z,101617.13
2023-04-25T16:01:58.019Z,101622.66
2023-04-25T16:07:01.826Z,101614.78
2023-04-25T16:12:08.206Z,101617.44
2023-04-25T16:17:11.930Z,101618.72
2023-04-25T16:22:16.602Z,101616.00
2023-04-25T16:27:22.165Z,101624.62
2023-04-25T16:32:25.936Z,101628.91
2023-04-25T16:37:29.824Z,101637.16
2023-04-25T16:42:34.907Z,101639.94
2023-04-25T16:47:38.661Z,101646.53
2023-04-25T16:52:44.305Z,101649.25
2023-04-25T16:57:49.947Z,101652.19
2023-04-25T17:02:53.816Z,101639.38
2023-04-25T17:07:57.844Z,101642.56
2023-04-25T17:13:02.972Z,101651.72
2023-04-25T17:18:07.062Z,101668.06
2023-04-25T17:23:11.131Z,101672.75
2023-04-25T17:28:16.188Z,101670.72
2023-04-25T17:33:19.885Z,101681.28
2023-04-25T17:38:23.664Z,101682.84
2023-04-25T17:43:28.802Z,101678.13
2023-04-25T17:48:32.501Z,101681.31
2023-04-25T17:53:36.538Z,101686.81
2023-04-25T17:58:41.584Z,101688.72
2023-04-25T18:03:47.019Z,101703.91
2023-04-25T18:08:51.362Z,101706.69
2023-04-25T18:13:56.962Z,101708.31
2023-04-25T18:19:05.347Z,101702.47
2023-04-25T18:24:09.602Z,101708.31
2023-04-25T18:29:29.094Z,101710.94
2023-04-25T18:34:36.497Z,101714.25
2023-04-25T18:39:40.684Z,101721.72
2023-04-25T18:44:46.442Z,101720.69
2023-04-25T18:49:50.821Z,101722.84
2023-04-25T18:54:54.641Z,101730.28
2023-04-25T19:00:04.678Z,101726.53
2023-04-25T19:05:10.105Z,101734.06
2023-04-25T19:10:13.829Z,101729.16
2023-04-25T19:15:19.209Z,101741.56
2023-04-25T19:20:22.930Z,101765.63
2023-04-25T19:25:27.010Z,101764.16
2023-04-25T19:30:32.948Z,101758.44
2023-04-25T19:35:36.790Z,101766.84
2023-04-25T19:40:40.450Z,101771.25
2023-04-25T19:45:45.881Z,101774.66
2023-04-25T19:50:49.648Z,101783.91
2023-04-25T19:55:53.466Z,101781.41
2023-04-25T20:00:58.578Z,101789.75
2023-04-25T20:06:02.633Z,101797.69
2023-04-25T20:11:06.843Z,101801.28
2023-04-25T20:16:12.245Z,101802.25
2023-04-25T20:21:17.423Z,101796.59
2023-04-25T20:26:22.780Z,101812.94
2023-04-25T20:31:28.260Z,101808.34
2023-04-25T20:36:32.447Z,101812.31
2023-04-25T20:41:37.573Z,101809.75
2023-04-25T20:46:42.784Z,101807.06
2023-04-25T20:51:46.492Z,101804.44
2023-04-25T20:56:50.467Z,101803.94
2023-04-25T21:01:55.756Z,101809.28
2023-04-25T21:07:00.234Z,101809.50
2023-04-25T21:12:03.997Z,101803.03
2023-04-25T21:17:09.135Z,101802.34
2023-04-25T21:22:13.009Z,101802.16
2023-04-25T21:27:17.378Z,101806.91
2023-04-25T21:32:22.451Z,101815.50
2023-04-25T21:37:26.160Z,101818.88
2023-04-25T21:42:29.857Z,101812.87
2023-04-25T21:47:35.290Z,101826.41
2023-04-25T21:52:39.183Z,101820.34
2023-04-25T21:57:42.930Z,101829.41
2023-04-25T22:02:48.235Z,101830.19
2023-04-25T22:07:53.491Z,101827.25
2023-04-25T22:12:57.220Z,101836.78
2023-04-25T22:18:04.347Z,101839.22
2023-04-25T22:23:08.171Z,101842.44
2023-04-25T22:28:12.682Z,101834.72
2023-04-25T22:33:17.767Z,101832.69
2023-04-25T22:38:21.527Z,101837.16
2023-04-25T22:43:26.114Z,101845.72
2023-04-25T22:48:31.312Z,101846.81
2023-04-25T22:53:37.385Z,101849.56
2023-04-25T22:58:41.412Z,101847.94
2023-04-25T23:03:46.617Z,101850.94
2023-04-25T23:08:51.116Z,101861.81
2023-04-25T23:13:55.087Z,101857.97
2023-04-25T23:19:00.753Z,101855.91
2023-04-25T23:24:05.082Z,101853.28
2023-04-25T23:29:08.797Z,101856.25
2023-04-25T23:34:13.816Z,101854.88
2023-04-25T23:39:18.885Z,101857.72
2023-04-25T23:44:22.690Z,101857.13
2023-04-25T23:49:27.967Z,101848.16
2023-04-25T23:54:31.755Z,101852.69
2023-04-25T23:59:35.463Z,101846.78
